Axis, Alabama
Current Conditions -  °F | °C
As of 6:53 AM on Friday 24 Oct 2014 (Local Time) from KBFM Reporting Station
Clear Clear  
Wind Chill: 51°   Ceiling: Unl
Heat Index: 51°   Visibility: 10mi
Dew Point: 48°   Wind: 5mph
Humidity: 89%   Direction: 340°NNW
Pressure: 30.1"   Gusts: NA
Location:  30.93°N, 88.03°W
Report Text: KBFM 241153Z 34004KT 10SM CLR 11/09 A3010 RMK AO2 SLP192 T01060089 10144 20100 52008
Loading
Personal Weather Stations






























Interactive Weather Map
Tropical Storm Tracking
New forecast layout! Learn more

10-Day Weather Forecast

Advertisements
Track Severe Weather on mobile